Observation data for Seminole on 06/15/2019      Previous  Date  Next       Current Mesonet Observations  Soil Data  Daily Summary Page  Observations in Plain Language
KSM1 150500Z 18011KT 25/16 A2988 RMK A01 T02540160  RH  059%=      5-min Rain = 0
KSM1 150505Z 19010KT 25/16 A2988 RMK A01 T02510160  RH  060%=      5-min Rain = 0
KSM1 150510Z 18010KT 25/16 A2988 RMK A01 T02500161  RH  061%=      5-min Rain = 0
KSM1 150515Z 19009KT 25/16 A2988 RMK A01 T02480161  RH  061%=      5-min Rain = 0
KSM1 150520Z 19010KT 25/16 A2988 RMK A01 T02470161  RH  062%=      5-min Rain = 0
KSM1 150525Z 19010KT 25/16 A2988 RMK A01 T02470160  RH  061%=      5-min Rain = 0
KSM1 150530Z 19009KT 25/16 A2988 RMK A01 T02460160  RH  062%=      5-min Rain = 0
KSM1 150535Z 19009KT 24/16 A2988 RMK A01 T02440160  RH  062%=      5-min Rain = 0
KSM1 150540Z 19009KT 24/16 A2988 RMK A01 T02430160  RH  063%=      5-min Rain = 0
KSM1 150545Z 18009KT 24/16 A2988 RMK A01 T02410160  RH  064%=      5-min Rain = 0
KSM1 150550Z 18010KT 24/16 A2988 RMK A01 T02390160  RH  064%=      5-min Rain = 0
KSM1 150555Z 18009G15KT 24/16 A2988 RMK A01 T02390159  RH  064%=      5-min Rain = 0
KSM1 150600Z 18009KT 24/16 A2988 RMK A01 T02370158  RH  064%=      5-min Rain = 0
KSM1 150605Z 18008KT 24/16 A2988 RMK A01 T02360157  RH  064%=      5-min Rain = 0
KSM1 150610Z 17008KT 23/16 A2988 RMK A01 T02330157  RH  066%=      5-min Rain = 0
KSM1 150615Z 18008KT 23/16 A2988 RMK A01 T02290157  RH  067%=      5-min Rain = 0
KSM1 150620Z 17009KT 23/16 A2987 RMK A01 T02280155  RH  066%=      5-min Rain = 0
KSM1 150625Z 17009KT 23/16 A2988 RMK A01 T02270156  RH  067%=      5-min Rain = 0
KSM1 150630Z 17008KT 22/16 A2988 RMK A01 T02240156  RH  069%=      5-min Rain = 0
KSM1 150635Z 17008KT 22/16 A2988 RMK A01 T02210157  RH  070%=      5-min Rain = 0
KSM1 150640Z 18008KT 22/16 A2987 RMK A01 T02200157  RH  070%=      5-min Rain = 0
KSM1 150645Z 17008KT 22/16 A2987 RMK A01 T02200156  RH  070%=      5-min Rain = 0
KSM1 150650Z 17007KT 22/16 A2987 RMK A01 T02180155  RH  071%=      5-min Rain = 0
KSM1 150655Z 17007KT 22/16 A2987 RMK A01 T02160155  RH  072%=      5-min Rain = 0
KSM1 150700Z 17006KT 21/16 A2987 RMK A01 T02140155  RH  072%=      5-min Rain = 0
KSM1 150705Z 18006KT 21/15 A2987 RMK A01 T02120154  RH  073%=      5-min Rain = 0
KSM1 150710Z 18007KT 21/15 A2987 RMK A01 T02100154  RH  074%=      5-min Rain = 0
KSM1 150715Z 19007KT 21/15 A2987 RMK A01 T02090154  RH  074%=      5-min Rain = 0
KSM1 150720Z 18007KT 21/15 A2987 RMK A01 T02090152  RH  073%=      5-min Rain = 0
KSM1 150725Z 19007KT 21/15 A2987 RMK A01 T02110149  RH  071%=      5-min Rain = 0
KSM1 150730Z 19009KT 21/15 A2986 RMK A01 T02140146  RH  068%=      5-min Rain = 0
KSM1 150735Z 19009KT 22/15 A2986 RMK A01 T02150145  RH  067%=      5-min Rain = 0
KSM1 150740Z 19009KT 22/14 A2986 RMK A01 T02150144  RH  067%=      5-min Rain = 0
KSM1 150745Z 18009KT 22/14 A2986 RMK A01 T02150143  RH  066%=      5-min Rain = 0
KSM1 150750Z 18009KT 22/14 A2986 RMK A01 T02150143  RH  066%=      5-min Rain = 0
KSM1 150755Z 19009KT 21/14 A2986 RMK A01 T02120142  RH  067%=      5-min Rain = 0
KSM1 150800Z 19009KT 21/14 A2986 RMK A01 T02120141  RH  067%=      5-min Rain = 0
KSM1 150805Z 18009KT 21/14 A2986 RMK A01 T02110141  RH  067%=      5-min Rain = 0
KSM1 150810Z 18010KT 21/14 A2986 RMK A01 T02100140  RH  067%=      5-min Rain = 0
KSM1 150815Z 19010KT 21/14 A2986 RMK A01 T02100140  RH  067%=      5-min Rain = 0
KSM1 150820Z 19010KT 21/14 A2986 RMK A01 T02100140  RH  067%=      5-min Rain = 0
KSM1 150825Z 20012KT 21/14 A2986 RMK A01 T02120140  RH  066%=      5-min Rain = 0
KSM1 150830Z 20012KT 21/14 A2986 RMK A01 T02130140  RH  066%=      5-min Rain = 0
KSM1 150835Z 20014KT 22/14 A2985 RMK A01 T02150141  RH  066%=      5-min Rain = 0
KSM1 150840Z 20015KT 22/14 A2985 RMK A01 T02180142  RH  065%=      5-min Rain = 0
KSM1 150845Z 21016G23KT 22/14 A2985 RMK A01 T02220141  RH  063%=      5-min Rain = 0
KSM1 150850Z 20016KT 22/14 A2985 RMK A01 T02240141  RH  062%=      5-min Rain = 0
KSM1 150855Z 21014KT 22/14 A2985 RMK A01 T02230142  RH  062%=      5-min Rain = 0
KSM1 150900Z 20014KT 22/14 A2984 RMK A01 T02220142  RH  063%=      5-min Rain = 0
KSM1 150905Z 20014G19KT 22/14 A2985 RMK A01 T02210142  RH  064%=      5-min Rain = 0
KSM1 150910Z 21013G19KT 22/14 A2985 RMK A01 T02200142  RH  064%=      5-min Rain = 0
KSM1 150915Z 20013G19KT 22/14 A2985 RMK A01 T02200142  RH  064%=      5-min Rain = 0
KSM1 150920Z 20013KT 22/14 A2985 RMK A01 T02190142  RH  064%=      5-min Rain = 0
KSM1 150925Z 19012KT 22/14 A2985 RMK A01 T02170142  RH  065%=      5-min Rain = 0
KSM1 150930Z 19011KT 22/14 A2985 RMK A01 T02150142  RH  066%=      5-min Rain = 0
KSM1 150935Z 20010KT 21/14 A2986 RMK A01 T02130141  RH  066%=      5-min Rain = 0
KSM1 150940Z 21010KT 21/14 A2986 RMK A01 T02130141  RH  066%=      5-min Rain = 0
KSM1 150945Z 20011KT 21/14 A2986 RMK A01 T02140140  RH  066%=      5-min Rain = 0
KSM1 150950Z 20011KT 21/14 A2986 RMK A01 T02130140  RH  065%=      5-min Rain = 0
KSM1 150955Z 20010KT 21/14 A2985 RMK A01 T02120139  RH  066%=      5-min Rain = 0
KSM1 151000Z 21010KT 21/14 A2986 RMK A01 T02120138  RH  065%=      5-min Rain = 0
KSM1 151005Z 20010KT 21/14 A2986 RMK A01 T02130137  RH  064%=      5-min Rain = 0
KSM1 151010Z 20012KT 21/14 A2985 RMK A01 T02130135  RH  064%=      5-min Rain = 0
KSM1 151015Z 20009KT 21/13 A2985 RMK A01 T02130134  RH  063%=      5-min Rain = 0
KSM1 151020Z 20010KT 21/13 A2985 RMK A01 T02110133  RH  063%=      5-min Rain = 0
KSM1 151025Z 20010KT 21/13 A2985 RMK A01 T02110131  RH  063%=      5-min Rain = 0
KSM1 151030Z 20010KT 21/13 A2985 RMK A01 T02110130  RH  062%=      5-min Rain = 0
KSM1 151035Z 20010KT 21/13 A2985 RMK A01 T02110129  RH  062%=      5-min Rain = 0
KSM1 151040Z 20010KT 21/13 A2985 RMK A01 T02100127  RH  061%=      5-min Rain = 0
KSM1 151045Z 20009KT 21/13 A2985 RMK A01 T02110125  RH  060%=      5-min Rain = 0
KSM1 151050Z 20010G15KT 21/12 A2985 RMK A01 T02110124  RH  060%=      5-min Rain = 0
KSM1 151055Z 20009KT 21/12 A2985 RMK A01 T02110123  RH  059%=      5-min Rain = 0
KSM1 151100Z 20010KT 21/12 A2985 RMK A01 T02110121  RH  059%=      5-min Rain = 0
KSM1 151105Z 20010KT 21/12 A2985 RMK A01 T02120120  RH  058%=      5-min Rain = 0
KSM1 151110Z 20011KT 21/12 A2985 RMK A01 T02130118  RH  057%=      5-min Rain = 0
KSM1 151115Z 20010KT 21/12 A2985 RMK A01 T02130118  RH  057%=      5-min Rain = 0
KSM1 151120Z 20010KT 21/12 A2985 RMK A01 T02120117  RH  057%=      5-min Rain = 0
KSM1 151125Z 21011KT 21/12 A2985 RMK A01 T02120116  RH  056%=      5-min Rain = 0
KSM1 151130Z 21011KT 21/12 A2985 RMK A01 T02120115  RH  056%=      5-min Rain = 0
KSM1 151135Z 21010KT 21/12 A2985 RMK A01 T02120115  RH  056%=      5-min Rain = 0
KSM1 151140Z 21011KT 21/12 A2985 RMK A01 T02120115  RH  056%=      5-min Rain = 0
KSM1 151145Z 21011KT 21/11 A2985 RMK A01 T02120114  RH  056%=      5-min Rain = 0
KSM1 151150Z 22009KT 21/11 A2985 RMK A01 T02110114  RH  056%=      5-min Rain = 0
KSM1 151155Z 21008KT 21/11 A2985 RMK A01 T02090114  RH  057%=      5-min Rain = 0
KSM1 151200Z 22007KT 21/11 A2985 RMK A01 T02070114  RH  057%=      5-min Rain = 0
KSM1 151205Z 22007KT 21/11 A2985 RMK A01 T02060114  RH  058%=      5-min Rain = 0
KSM1 151210Z 22008KT 21/11 A2985 RMK A01 T02060114  RH  058%=      5-min Rain = 0
KSM1 151215Z 22008KT 21/11 A2986 RMK A01 T02070114  RH  057%=      5-min Rain = 0
KSM1 151220Z 23008KT 21/12 A2986 RMK A01 T02080115  RH  057%=      5-min Rain = 0
KSM1 151225Z 23007KT 21/12 A2986 RMK A01 T02090115  RH  057%=      5-min Rain = 0
KSM1 151230Z 24007KT 21/12 A2986 RMK A01 T02090115  RH  057%=      5-min Rain = 0
KSM1 151235Z 24008KT 21/12 A2986 RMK A01 T02100116  RH  057%=      5-min Rain = 0
KSM1 151240Z 23008KT 21/12 A2986 RMK A01 T02110116  RH  057%=      5-min Rain = 0
KSM1 151245Z 23009KT 21/12 A2986 RMK A01 T02120117  RH  057%=      5-min Rain = 0
KSM1 151250Z 23008KT 21/12 A2986 RMK A01 T02140118  RH  056%=      5-min Rain = 0
KSM1 151255Z 23008KT 22/12 A2986 RMK A01 T02150118  RH  056%=      5-min Rain = 0
KSM1 151300Z 23008KT 22/12 A2986 RMK A01 T02170119  RH  056%=      5-min Rain = 0
KSM1 151305Z 23008KT 22/12 A2986 RMK A01 T02190120  RH  055%=      5-min Rain = 0
KSM1 151310Z 24009KT 22/12 A2986 RMK A01 T02210120  RH  055%=      5-min Rain = 0
KSM1 151315Z 23010KT 22/12 A2986 RMK A01 T02230119  RH  054%=      5-min Rain = 0
KSM1 151320Z 24010KT 23/12 A2986 RMK A01 T02260120  RH  053%=      5-min Rain = 0
KSM1 151325Z 24011KT 23/12 A2987 RMK A01 T02290120  RH  052%=      5-min Rain = 0
KSM1 151330Z 24013KT 23/12 A2987 RMK A01 T02310119  RH  051%=      5-min Rain = 0
KSM1 151335Z 24012KT 23/12 A2987 RMK A01 T02340119  RH  050%=      5-min Rain = 0
KSM1 151340Z 24011KT 24/12 A2987 RMK A01 T02370119  RH  049%=      5-min Rain = 0
KSM1 151345Z 24012KT 24/12 A2987 RMK A01 T02410116  RH  047%=      5-min Rain = 0
KSM1 151350Z 24013KT 24/12 A2987 RMK A01 T02430116  RH  046%=      5-min Rain = 0
KSM1 151355Z 24013KT 25/12 A2988 RMK A01 T02460115  RH  045%=      5-min Rain = 0
KSM1 151400Z 24012KT 25/11 A2988 RMK A01 T02490113  RH  044%=      5-min Rain = 0
KSM1 151405Z 24012G17KT 25/11 A2988 RMK A01 T02530110  RH  042%=      5-min Rain = 0
KSM1 151410Z 24013KT 26/11 A2988 RMK A01 T02560107  RH  041%=      5-min Rain = 0
KSM1 151415Z 24011KT 26/11 A2988 RMK A01 T02600107  RH  040%=      5-min Rain = 0
KSM1 151420Z 25011G16KT 26/11 A2988 RMK A01 T02640105  RH  038%=      5-min Rain = 0
KSM1 151425Z 24013KT 27/10 A2988 RMK A01 T02660101  RH  037%=      5-min Rain = 0
KSM1 151430Z 24011KT 27/10 A2988 RMK A01 T02680100  RH  036%=      5-min Rain = 0
KSM1 151435Z 25011KT 27/10 A2988 RMK A01 T02720099  RH  035%=      5-min Rain = 0
KSM1 151440Z 26010KT 28/10 A2988 RMK A01 T02770096  RH  033%=      5-min Rain = 0
KSM1 151445Z 26010KT 28/09 A2988 RMK A01 T02800091  RH  031%=      5-min Rain = 0
KSM1 151450Z 26011KT 28/09 A2988 RMK A01 T02820086  RH  030%=      5-min Rain = 0
KSM1 151455Z 26010G15KT 29/08 A2988 RMK A01 T02850081  RH  029%=      5-min Rain = 0
KSM1 151500Z 26010KT 29/08 A2988 RMK A01 T02890080  RH  028%=      5-min Rain = 0
KSM1 151505Z 25009KT 29/08 A2988 RMK A01 T02920080  RH  027%=      5-min Rain = 0
KSM1 151510Z 26010G15KT 30/07 A2988 RMK A01 T02960073  RH  025%=      5-min Rain = 0
KSM1 151515Z 26011KT 30/07 A2988 RMK A01 T02980065  RH  024%=      5-min Rain = 0
KSM1 151520Z 26010KT 30/06 A2988 RMK A01 T03010060  RH  022%=      5-min Rain = 0
KSM1 151525Z 26010KT 30/06 A2988 RMK A01 T03030060  RH  022%=      5-min Rain = 0
KSM1 151530Z 26012KT 30/06 A2989 RMK A01 T03030059  RH  022%=      5-min Rain = 0
KSM1 151535Z 26010KT 31/06 A2989 RMK A01 T03050062  RH  022%=      5-min Rain = 0
KSM1 151540Z 25010KT 31/06 A2988 RMK A01 T03070061  RH  022%=      5-min Rain = 0
KSM1 151545Z 27010G15KT 31/06 A2988 RMK A01 T03090056  RH  021%=      5-min Rain = 0
KSM1 151550Z 26010KT 31/05 A2988 RMK A01 T03110052  RH  020%=      5-min Rain = 0
KSM1 151555Z 27008KT 31/05 A2988 RMK A01 T03130053  RH  020%=      5-min Rain = 0
KSM1 151600Z 27007G13KT 32/05 A2987 RMK A01 T03170049  RH  019%=      5-min Rain = 0
KSM1 151605Z 28007KT 32/03 A2987 RMK A01 T03190031  RH  017%=      5-min Rain = 0
KSM1 151610Z 27007KT 32/03 A2987 RMK A01 T03200033  RH  017%=      5-min Rain = 0
KSM1 151615Z 27008KT 32/04 A2987 RMK A01 T03210039  RH  017%=      5-min Rain = 0
KSM1 151620Z 27009KT 32/04 A2988 RMK A01 T03240040  RH  017%=      5-min Rain = 0
KSM1 151625Z 26007G13KT 33/03 A2988 RMK A01 T03280034  RH  016%=      5-min Rain = 0
KSM1 151630Z 27008G13KT 33/02 A2988 RMK A01 T03290020  RH  014%=      5-min Rain = 0
KSM1 151635Z 27010KT 33/02 A2988 RMK A01 T03300016  RH  014%=      5-min Rain = 0
KSM1 151640Z 28007KT 33/02 A2988 RMK A01 T03320018  RH  014%=      5-min Rain = 0
KSM1 151645Z 26008KT 34/02 A2988 RMK A01 T03350022  RH  014%=      5-min Rain = 0
KSM1 151650Z 26009G16KT 34/03 A2988 RMK A01 T03360026  RH  014%=      5-min Rain = 0
KSM1 151655Z 27009G14KT 34/02 A2988 RMK A01 T03360018  RH  014%=      5-min Rain = 0
KSM1 151700Z 25009KT 34/02 A2988 RMK A01 T03360021  RH  014%=      5-min Rain = 0
KSM1 151705Z 25009KT 34/02 A2988 RMK A01 T03370024  RH  014%=      5-min Rain = 0
KSM1 151710Z 25009G14KT 34/03 A2988 RMK A01 T03370027  RH  014%=      5-min Rain = 0
KSM1 151715Z 26007G12KT 34/02 A2988 RMK A01 T03370024  RH  014%=      5-min Rain = 0
KSM1 151720Z 26008KT 34/03 A2987 RMK A01 T03420029  RH  014%=      5-min Rain = 0
KSM1 151725Z 28007G12KT 34/02 A2987 RMK A01 T03440023  RH  013%=      5-min Rain = 0
KSM1 151730Z 27006G11KT 35/03 A2987 RMK A01 T03470028  RH  014%=      5-min Rain = 0
KSM1 151735Z 27006KT 35/02 A2987 RMK A01 T03500020  RH  013%=      5-min Rain = 0
KSM1 151740Z 27010KT 35/02 A2987 RMK A01 T03490015  RH  012%=      5-min Rain = 0
KSM1 151745Z 26008G13KT 35/01 A2987 RMK A01 T03500008  RH  012%=      5-min Rain = 0
KSM1 151750Z 25008KT 35/01 A2987 RMK A01 T03520014  RH  012%=      5-min Rain = 0
KSM1 151755Z 26008G14KT 35/01 A2987 RMK A01 T03520006  RH  011%=      5-min Rain = 0
KSM1 151800Z 26010KT 36/00 A2987 RMK A01 T03560000  RH  011%=      5-min Rain = 0
KSM1 151805Z 29011G17KT 36/M01 A2987 RMK A01 T03591011  RH  010%=      5-min Rain = 0
KSM1 151810Z 26008G13KT 36/M01 A2987 RMK A01 T03581011  RH  010%=      5-min Rain = 0
KSM1 151815Z 26009G15KT 36/M01 A2987 RMK A01 T03581012  RH  010%=      5-min Rain = 0
KSM1 151820Z 28010G15KT 36/M01 A2987 RMK A01 T03591012  RH  010%=      5-min Rain = 0
KSM1 151825Z 28009G14KT 36/M01 A2987 RMK A01 T03601013  RH  009%=      5-min Rain = 0
KSM1 151830Z 29008G13KT 36/M01 A2987 RMK A01 T03591012  RH  010%=      5-min Rain = 0
KSM1 151835Z 28009G14KT 36/M01 A2986 RMK A01 T03611007  RH  010%=      5-min Rain = 0
KSM1 151840Z 29010G15KT 36/M01 A2986 RMK A01 T03641011  RH  009%=      5-min Rain = 0
KSM1 151845Z 29006KT 36/M02 A2986 RMK A01 T03621016  RH  009%=      5-min Rain = 0
KSM1 151850Z 27009KT 36/M01 A2986 RMK A01 T03621012  RH  009%=      5-min Rain = 0
KSM1 151855Z 26006G11KT 36/M01 A2986 RMK A01 T03621013  RH  009%=      5-min Rain = 0
KSM1 151900Z 26006G11KT 36/M01 A2986 RMK A01 T03621007  RH  010%=      5-min Rain = 0
KSM1 151905Z 27012KT 36/M01 A2986 RMK A01 T03631012  RH  009%=      5-min Rain = 0
KSM1 151910Z 27006G11KT 36/M01 A2986 RMK A01 T03601010  RH  010%=      5-min Rain = 0
KSM1 151915Z 24005KT 36/M01 A2986 RMK A01 T03571008  RH  010%=      5-min Rain = 0
KSM1 151920Z 26009G14KT 36/M01 A2986 RMK A01 T03591006  RH  010%=      5-min Rain = 0
KSM1 151925Z 26008KT 35/M01 A2985 RMK A01 T03541006  RH  010%=      5-min Rain = 0
KSM1 151930Z 26004KT 35/M01 A2985 RMK A01 T03531010  RH  010%=      5-min Rain = 0
KSM1 151935Z 27006KT 36/M00 A2985 RMK A01 T03571003  RH  010%=      5-min Rain = 0
KSM1 151940Z 24009KT 36/01 A2985 RMK A01 T03640005  RH  011%=      5-min Rain = 0
KSM1 151945Z 24009KT 37/00 A2985 RMK A01 T03650004  RH  010%=      5-min Rain = 0
KSM1 151950Z 23008KT 37/01 A2985 RMK A01 T03650005  RH  011%=      5-min Rain = 0
KSM1 151955Z 26010G16KT 37/00 A2984 RMK A01 T03650003  RH  010%=      5-min Rain = 0
KSM1 152000Z 26008KT 37/01 A2984 RMK A01 T03680006  RH  010%=      5-min Rain = 0
KSM1 152005Z 26010KT 36/00 A2984 RMK A01 T036400-0  RH  010%=      5-min Rain = 0
KSM1 152010Z 24007KT 36/M00 A2984 RMK A01 T03581003  RH  010%=      5-min Rain = 0
KSM1 152015Z 26008G16KT 36/00 A2984 RMK A01 T03630004  RH  011%=      5-min Rain = 0
KSM1 152020Z 26011G17KT 37/00 A2984 RMK A01 T03660004  RH  010%=      5-min Rain = 0
KSM1 152025Z 24010G15KT 37/01 A2984 RMK A01 T03680007  RH  010%=      5-min Rain = 0
KSM1 152030Z 21009G17KT 36/00 A2983 RMK A01 T03580002  RH  011%=      5-min Rain = 0
KSM1 152035Z 24009KT 37/01 A2983 RMK A01 T03650009  RH  011%=      5-min Rain = 0
KSM1 152040Z 26011G17KT 37/01 A2983 RMK A01 T03670006  RH  010%=      5-min Rain = 0
KSM1 152045Z 24006KT 37/01 A2983 RMK A01 T03690008  RH  011%=      5-min Rain = 0
KSM1 152050Z 22007G12KT 37/01 A2983 RMK A01 T03670010  RH  011%=      5-min Rain = 0
KSM1 152055Z 22006G11KT 37/01 A2982 RMK A01 T03690013  RH  011%=      5-min Rain = 0
KSM1 152100Z 24010G16KT 37/01 A2982 RMK A01 T03710010  RH  011%=      5-min Rain = 0
KSM1 152105Z 23011G18KT 37/01 A2983 RMK A01 T03690009  RH  011%=      5-min Rain = 0
KSM1 152110Z 24010G16KT 37/01 A2982 RMK A01 T03680007  RH  010%=      5-min Rain = 0
KSM1 152115Z 22010G15KT 37/00 A2982 RMK A01 T03650003  RH  010%=      5-min Rain = 0
KSM1 152120Z 21008KT 37/00 A2982 RMK A01 T03650004  RH  010%=      5-min Rain = 0
KSM1 152125Z 26010G15KT 37/00 A2982 RMK A01 T03680001  RH  010%=      5-min Rain = 0
KSM1 152130Z 24008KT 37/00 A2981 RMK A01 T03690004  RH  010%=      5-min Rain = 0
KSM1 152135Z 24011G17KT 37/01 A2981 RMK A01 T03700005  RH  010%=      5-min Rain = 0
KSM1 152140Z 25011KT 37/00 A2981 RMK A01 T03690002  RH  010%=      5-min Rain = 0
KSM1 152145Z 25008G18KT 37/01 A2981 RMK A01 T03700006  RH  010%=      5-min Rain = 0
KSM1 152150Z 25014G19KT 37/00 A298 RMK A01 T03720003  RH  010%=      5-min Rain = 0
KSM1 152155Z 23011G17KT 37/01 A298 RMK A01 T03680006  RH  010%=      5-min Rain = 0
KSM1 152200Z 23011G16KT 37/00 A298 RMK A01 T03650003  RH  010%=      5-min Rain = 0
KSM1 152205Z 22009G14KT 37/01 A298 RMK A01 T03670008  RH  011%=      5-min Rain = 0
KSM1 152210Z 25012G19KT 37/01 A298 RMK A01 T03700006  RH  010%=      5-min Rain = 0
KSM1 152215Z 25011KT 37/00 A2979 RMK A01 T03720004  RH  010%=      5-min Rain = 0
KSM1 152220Z 24008KT 37/01 A2979 RMK A01 T03690006  RH  010%=      5-min Rain = 0
KSM1 152225Z 24009KT 36/00 A2979 RMK A01 T03640003  RH  010%=      5-min Rain = 0
KSM1 152230Z 24011G17KT 36/00 A2979 RMK A01 T03580003  RH  011%=      5-min Rain = 0
KSM1 152235Z 22012KT 36/01 A2979 RMK A01 T03580009  RH  011%=      5-min Rain = 0
KSM1 152240Z 23012G18KT 36/01 A2979 RMK A01 T03590011  RH  011%=      5-min Rain = 0
KSM1 152245Z 22011G16KT 36/01 A2979 RMK A01 T03570011  RH  011%=      5-min Rain = 0
KSM1 152250Z 23011G17KT 36/01 A2978 RMK A01 T03580011  RH  011%=      5-min Rain = 0
KSM1 152255Z 24008KT 36/01 A2978 RMK A01 T03560011  RH  012%=      5-min Rain = 0
KSM1 152300Z 23011G18KT 36/01 A2978 RMK A01 T03590011  RH  011%=      5-min Rain = 0
KSM1 152305Z 24013G20KT 36/01 A2977 RMK A01 T03620010  RH  011%=      5-min Rain = 0
KSM1 152310Z 23013G19KT 36/02 A2977 RMK A01 T03630015  RH  011%=      5-min Rain = 0
KSM1 152315Z 23015KT 36/01 A2977 RMK A01 T03620011  RH  011%=      5-min Rain = 0
KSM1 152320Z 24010G17KT 36/01 A2977 RMK A01 T03600008  RH  011%=      5-min Rain = 0
KSM1 152325Z 23013G19KT 36/01 A2977 RMK A01 T03580006  RH  011%=      5-min Rain = 0
KSM1 152330Z 23010KT 36/01 A2977 RMK A01 T03590006  RH  011%=      5-min Rain = 0
KSM1 152335Z 22011G19KT 36/01 A2976 RMK A01 T03610011  RH  011%=      5-min Rain = 0
KSM1 152340Z 23012G18KT 36/M00 A2976 RMK A01 T03591002  RH  010%=      5-min Rain = 0
KSM1 152345Z 22012G20KT 36/M00 A2976 RMK A01 T03591001  RH  010%=      5-min Rain = 0
KSM1 152350Z 22014G19KT 36/M01 A2976 RMK A01 T03581008  RH  010%=      5-min Rain = 0
KSM1 152355Z 23011G16KT 36/M01 A2976 RMK A01 T03571005  RH  010%=      5-min Rain = 0
KSM1 160000Z 24014KT 36/M01 A2976 RMK A01 T03571010  RH  010%=      5-min Rain = 0
KSM1 160005Z 24012G21KT 36/M01 A2976 RMK A01 T03561007  RH  010%=      5-min Rain = 0
KSM1 160010Z 25010G16KT 36/M00 A2976 RMK A01 T03571003  RH  010%=      5-min Rain = 0
KSM1 160015Z 24011KT 36/M01 A2976 RMK A01 T03561005  RH  010%=      5-min Rain = 0
KSM1 160020Z 25013G18KT 35/M01 A2976 RMK A01 T03541009  RH  010%=      5-min Rain = 0
KSM1 160025Z 25013G18KT 35/M01 A2977 RMK A01 T03521009  RH  010%=      5-min Rain = 0
KSM1 160030Z 26012G18KT 35/M01 A2977 RMK A01 T03521013  RH  010%=      5-min Rain = 0
KSM1 160035Z 26011KT 35/M01 A2977 RMK A01 T03511014  RH  010%=      5-min Rain = 0
KSM1 160040Z 26011G18KT 35/M01 A2977 RMK A01 T03511012  RH  010%=      5-min Rain = 0
KSM1 160045Z 26016KT 35/M02 A2977 RMK A01 T03491021  RH  009%=      5-min Rain = 0
KSM1 160050Z 26014G20KT 35/M03 A2978 RMK A01 T03461029  RH  009%=      5-min Rain = 0
KSM1 160055Z 26012G17KT 34/M03 A2978 RMK A01 T03441031  RH  009%=      5-min Rain = 0
KSM1 160100Z 26012G18KT 34/M03 A2978 RMK A01 T03421030  RH  009%=      5-min Rain = 0
KSM1 160105Z 27013G18KT 34/M03 A2978 RMK A01 T03401033  RH  009%=      5-min Rain = 0
KSM1 160110Z 26012G17KT 34/M04 A2979 RMK A01 T03381038  RH  009%=      5-min Rain = 0
KSM1 160115Z 26011KT 34/M04 A2979 RMK A01 T03361039  RH  009%=      5-min Rain = 0
KSM1 160120Z 26013KT 33/M04 A2979 RMK A01 T03341043  RH  009%=      5-min Rain = 0
KSM1 160125Z 26011KT 33/M04 A298 RMK A01 T03331041  RH  009%=      5-min Rain = 0
KSM1 160130Z 27011KT 33/M04 A298 RMK A01 T03291040  RH  009%=      5-min Rain = 0
KSM1 160135Z 27011G16KT 33/M04 A298 RMK A01 T03261042  RH  009%=      5-min Rain = 0
KSM1 160140Z 27010KT 32/M04 A298 RMK A01 T03231041  RH  009%=      5-min Rain = 0
KSM1 160145Z 27009KT 32/M04 A2981 RMK A01 T03191041  RH  010%=      5-min Rain = 0
KSM1 160150Z 28008KT 32/M04 A2981 RMK A01 T03151039  RH  010%=      5-min Rain = 0
KSM1 160155Z 28007KT 31/M04 A2981 RMK A01 T03111037  RH  010%=      5-min Rain = 0
KSM1 160200Z 28006KT 31/M04 A2981 RMK A01 T03061036  RH  011%=      5-min Rain = 0
KSM1 160205Z 28006KT 30/M03 A2981 RMK A01 T03011034  RH  011%=      5-min Rain = 0
KSM1 160210Z 29005KT 30/M03 A2981 RMK A01 T02961031  RH  012%=      5-min Rain = 0
KSM1 160215Z 28006KT 29/M03 A2981 RMK A01 T02911030  RH  012%=      5-min Rain = 0
KSM1 160220Z 28006KT 29/M03 A2981 RMK A01 T02861029  RH  013%=      5-min Rain = 0
KSM1 160225Z 27006KT 28/M03 A2982 RMK A01 T02821027  RH  013%=      5-min Rain = 0
KSM1 160230Z 27007KT 28/M03 A2982 RMK A01 T02781027  RH  014%=      5-min Rain = 0
KSM1 160235Z 27007KT 28/M03 A2982 RMK A01 T02771027  RH  014%=      5-min Rain = 0
KSM1 160240Z 27007KT 28/M03 A2982 RMK A01 T02781028  RH  013%=      5-min Rain = 0
KSM1 160245Z 27006KT 28/M03 A2982 RMK A01 T02781027  RH  013%=      5-min Rain = 0
KSM1 160250Z 27005KT 28/M03 A2982 RMK A01 T02751025  RH  014%=      5-min Rain = 0
KSM1 160255Z 28004KT 27/M02 A2982 RMK A01 T02691016  RH  015%=      5-min Rain = 0
KSM1 160300Z 29003KT 26/M01 A2982 RMK A01 T02581008  RH  018%=      5-min Rain = 0
KSM1 160305Z 29003KT 25/M01 A2983 RMK A01 T02511006  RH  019%=      5-min Rain = 0
KSM1 160310Z 29003KT 25/M01 A2983 RMK A01 T02501005  RH  019%=      5-min Rain = 0
KSM1 160315Z 30003KT 25/M00 A2983 RMK A01 T02491003  RH  019%=      5-min Rain = 0
KSM1 160320Z 01006KT 24/00 A2983 RMK A01 T02400003  RH  021%=      5-min Rain = 0
KSM1 160325Z 03009KT 24/04 A2983 RMK A01 T02350036  RH  028%=      5-min Rain = 0
KSM1 160330Z 04007KT 23/05 A2984 RMK A01 T02330047  RH  030%=      5-min Rain = 0
KSM1 160335Z 13005KT 23/05 A2984 RMK A01 T02290046  RH  031%=      5-min Rain = 0
KSM1 160340Z 11005KT 23/04 A2984 RMK A01 T02320042  RH  030%=      5-min Rain = 0
KSM1 160345Z 11004KT 23/05 A2985 RMK A01 T02330054  RH  032%=      5-min Rain = 0
KSM1 160350Z 12004KT 23/06 A2985 RMK A01 T02320057  RH  033%=      5-min Rain = 0
KSM1 160355Z 07004KT 23/06 A2985 RMK A01 T02270059  RH  034%=      5-min Rain = 0
KSM1 160400Z 04007KT 22/07 A2985 RMK A01 T02160070  RH  040%=      5-min Rain = 0
KSM1 160405Z 04007KT 22/08 A2985 RMK A01 T02150079  RH  043%=      5-min Rain = 0
KSM1 160410Z 04006KT 22/08 A2985 RMK A01 T02180084  RH  044%=      5-min Rain = 0
KSM1 160415Z 04006KT 22/09 A2985 RMK A01 T02180085  RH  044%=      5-min Rain = 0
KSM1 160420Z 03005KT 22/09 A2985 RMK A01 T02150086  RH  045%=      5-min Rain = 0
KSM1 160425Z 03010KT 21/09 A2986 RMK A01 T02130087  RH  046%=      5-min Rain = 0
KSM1 160430Z 04008KT 22/09 A2986 RMK A01 T02220085  RH  043%=      5-min Rain = 0
KSM1 160435Z 04008KT 22/09 A2986 RMK A01 T02220085  RH  043%=      5-min Rain = 0
KSM1 160440Z 04009KT 22/08 A2987 RMK A01 T02190084  RH  043%=      5-min Rain = 0
KSM1 160445Z 04009KT 22/08 A2987 RMK A01 T02190083  RH  043%=      5-min Rain = 0
KSM1 160450Z 03008KT 22/08 A2987 RMK A01 T02170083  RH  043%=      5-min Rain = 0
KSM1 160455Z 04009KT 22/08 A2987 RMK A01 T02150083  RH  044%=      5-min Rain = 0

Page generated in 0.0093 seconds.